X  Chiuso Dati meteorologici dell'aviazione (METAR)     LGRX Patras Araxos Agamemnon Airport
Temperatura
33°C Temperatura
22°C Punto di rugiada
52% Umidità



Vento
8 KM/O
5 MPH
2 M/S
4 KTS



260°
O
Condizioni attuali

Parzialmente nuvoloso Parzialmente nuvoloso
Pressione 1007.79 (hPa) - 29.76 (inHg)
Visibilità 6 (miglio) - 9.7 (km)
Aeroporto
Codice-Aeroporto LGRX

Posizione: Patras Araxos Agamemnon Airport
Distanza: 108 (km)

Metar:
LGRX 231450Z 26004KT 9999 FEW018TCU 33/22 Q1008 RMK FEW090 BLU

Ore: 23-07-2024 17:50 EEST